Time;durP1;ratioP1;P1;durP2;ratioP2;P2;SDS_P1;SDS_P2;PMS_P1;PMS_P2;Temp;Humidity;BMP_temperature;BMP_pressure;BME280_temperature;BME280_humidity;BME280_pressure;Samples;Min_cycle;Max_cycle;Signal;HPM_P1;HPM_P2
2021/10/23 00:01:42;;;;;;;11.17;5.80;;;;;;;7.15;100.00;102480.19;5114908;28;20364;-35
2021/10/23 00:04:08;;;;;;;12.37;5.70;;;;;;;7.18;100.00;102490.63;5114129;28;20019;-35
2021/10/23 00:06:33;;;;;;;14.17;6.17;;;;;;;7.00;100.00;102452.28;5114058;28;20454;-34
2021/10/23 00:08:58;;;;;;;10.07;5.77;;;;;;;7.19;100.00;102486.91;5114280;28;20482;-35
2021/10/23 00:11:24;;;;;;;13.87;6.83;;;;;;;7.20;100.00;102486.72;5114340;28;20463;-35
2021/10/23 00:13:49;;;;;;;14.43;6.63;;;;;;;7.22;100.00;102486.53;5114129;28;20110;-35
2021/10/23 00:16:15;;;;;;;10.13;5.77;;;;;;;7.29;100.00;102501.03;5113736;28;20253;-35
2021/10/23 00:18:40;;;;;;;15.25;6.82;;;;;;;7.30;100.00;102493.78;5114355;28;20053;-35
2021/10/23 00:21:05;;;;;;;12.33;6.40;;;;;;;7.29;100.00;102494.81;5114315;28;20024;-34
2021/10/23 00:23:31;;;;;;;16.48;6.97;;;;;;;7.33;100.00;102502.38;5113641;28;20047;-35
2021/10/23 00:25:57;;;;;;;19.63;8.03;;;;;;;7.36;100.00;102507.41;5114464;28;20023;-35
2021/10/23 00:28:22;;;;;;;12.07;6.95;;;;;;;7.37;100.00;102511.78;5114465;28;20023;-35
2021/10/23 00:30:48;;;;;;;12.68;6.82;;;;;;;7.38;100.00;102510.78;5114432;28;20019;-34
2021/10/23 00:33:13;;;;;;;11.57;7.20;;;;;;;7.37;100.00;102514.50;5113991;28;20027;-34
2021/10/23 00:35:39;;;;;;;18.33;8.40;;;;;;;7.37;100.00;102509.09;5113751;28;20023;-34
2021/10/23 00:38:04;;;;;;;16.90;7.53;;;;;;;7.38;100.00;102512.63;5113810;28;20076;-34
2021/10/23 00:40:30;;;;;;;12.68;7.65;;;;;;;7.41;100.00;102510.41;5113864;28;20031;-35
2021/10/23 00:42:56;;;;;;;15.00;7.97;;;;;;;7.40;100.00;102511.44;5113792;28;20526;-35
2021/10/23 00:45:22;;;;;;;23.15;9.23;;;;;;;7.42;100.00;102506.75;5114152;28;20019;-35
2021/10/23 00:47:47;;;;;;;14.30;9.00;;;;;;;7.42;100.00;102513.97;5114042;28;20456;-35
2021/10/23 00:50:12;;;;;;;15.50;8.83;;;;;;;7.40;100.00;102503.38;5113711;28;20024;-35
2021/10/23 00:52:38;;;;;;;13.80;9.23;;;;;;;7.43;100.00;102516.50;5113425;28;20031;-35
2021/10/23 00:55:07;;;;;;;14.57;9.03;;;;;;;7.40;100.00;102516.81;5113680;28;20073;-34
2021/10/23 00:57:33;;;;;;;14.13;8.60;;;;;;;7.42;100.00;102520.19;5114374;28;20020;-35
2021/10/23 00:59:58;;;;;;;17.20;8.90;;;;;;;7.37;100.00;102506.41;5113542;28;20027;-35
2021/10/23 01:02:23;;;;;;;13.97;9.53;;;;;;;7.39;100.00;102509.75;5113547;28;20051;-34
2021/10/23 01:04:49;;;;;;;15.32;8.90;;;;;;;7.33;100.00;102506.91;5113745;28;20024;-35
2021/10/23 01:07:14;;;;;;;13.10;9.60;;;;;;;7.38;100.00;102508.09;5113763;28;20418;-35
2021/10/23 01:09:40;;;;;;;27.42;11.75;;;;;;;7.35;100.00;102516.50;5113154;28;20110;-35
2021/10/23 01:12:08;;;;;;;19.63;8.63;;;;;;;7.23;100.00;102497.16;5117680;28;20058;-35
2021/10/23 01:14:34;;;;;;;14.88;9.65;;;;;;;7.18;100.00;102496.81;5117573;28;20053;-35
2021/10/23 01:17:00;;;;;;;14.10;9.98;;;;;;;7.17;100.00;102500.53;5117614;28;20024;-35
2021/10/23 01:19:25;;;;;;;14.47;9.47;;;;;;;7.21;100.00;102509.94;5117740;28;20047;-35
2021/10/23 01:21:51;;;;;;;19.63;10.03;;;;;;;7.04;100.00;102499.34;5118025;28;20051;-34
2021/10/23 01:24:18;;;;;;;14.40;9.20;;;;;;;7.13;100.00;102515.31;5117416;28;20027;-34
2021/10/23 01:26:44;;;;;;;14.13;9.07;;;;;;;7.11;100.00;102513.78;5117966;28;20028;-34
2021/10/23 01:29:12;;;;;;;15.05;10.20;;;;;;;7.13;100.00;102519.88;5117317;28;20027;-35
2021/10/23 01:31:39;;;;;;;12.45;9.43;;;;;;;7.08;100.00;102522.22;5117843;28;20023;-35
2021/10/23 01:34:16;;;;;;;15.00;10.00;;;;;;;7.05;100.00;102523.38;5117279;28;20028;-35
2021/10/23 01:36:51;;;;;;;16.67;10.82;;;;;;;6.99;100.00;102520.53;5118037;28;20348;-34
2021/10/23 01:39:18;;;;;;;17.27;11.55;;;;;;;6.94;100.00;102510.25;5118015;28;20352;-35
2021/10/23 01:41:43;;;;;;;20.10;12.25;;;;;;;6.99;100.00;102517.84;5117490;28;20436;-35
2021/10/23 01:44:11;;;;;;;17.15;12.55;;;;;;;7.03;100.00;102528.09;5116779;28;20157;-35
2021/10/23 01:46:36;;;;;;;20.30;13.43;;;;;;;7.06;100.00;102518.84;5116959;28;20015;-35
2021/10/23 01:49:02;;;;;;;20.47;14.07;;;;;;;7.04;100.00;102516.31;5116670;28;20022;-35
2021/10/23 01:51:28;;;;;;;19.08;13.98;;;;;;;7.02;100.00;102512.94;5117192;28;20050;-34
2021/10/23 01:53:54;;;;;;;20.08;13.90;;;;;;;7.06;100.00;102500.00;5116924;28;20376;-35
2021/10/23 01:56:20;;;;;;;19.02;13.02;;;;;;;7.06;100.00;102498.16;5116822;28;20059;-35
2021/10/23 01:58:45;;;;;;;18.17;14.00;;;;;;;7.09;100.00;102494.31;5116796;28;20026;-34
2021/10/23 02:01:10;;;;;;;19.77;13.93;;;;;;;7.07;100.00;102501.69;5117091;28;20031;-34
2021/10/23 02:03:35;;;;;;;16.87;12.40;;;;;;;6.96;100.00;102482.19;5117324;28;20023;-35
2021/10/23 02:06:01;;;;;;;23.93;15.20;;;;;;;6.96;100.00;102492.09;5116516;28;20047;-34
2021/10/23 02:08:26;;;;;;;22.90;14.87;;;;;;;6.97;100.00;102507.22;5117061;28;20423;-35
2021/10/23 02:10:51;;;;;;;23.23;15.63;;;;;;;6.97;100.00;102504.53;5116908;28;20040;-35
2021/10/23 02:13:17;;;;;;;20.53;15.43;;;;;;;6.99;100.00;102499.00;5116915;28;20023;-35
2021/10/23 02:15:42;;;;;;;21.20;14.30;;;;;;;6.92;100.00;102496.13;5116611;28;20020;-35
2021/10/23 02:18:07;;;;;;;19.60;15.50;;;;;;;6.94;100.00;102494.13;5116821;28;20398;-34
2021/10/23 02:20:34;;;;;;;16.20;14.20;;;;;;;6.85;100.00;102495.97;5116860;28;20070;-34
2021/10/23 02:23:00;;;;;;;19.92;14.80;;;;;;;6.87;100.00;102493.94;5115971;28;20016;-35
2021/10/23 02:25:26;;;;;;;23.70;16.13;;;;;;;6.75;100.00;102468.38;5116069;28;20051;-35
2021/10/23 02:27:52;;;;;;;21.98;15.73;;;;;;;6.66;100.00;102489.03;5116260;28;20476;-34
2021/10/23 02:30:17;;;;;;;22.37;14.10;;;;;;;6.71;100.00;102501.97;5097815;28;20035;-35
2021/10/23 02:32:43;;;;;;;24.93;16.47;;;;;;;6.63;100.00;102496.59;5116250;28;20451;-34
2021/10/23 02:35:08;;;;;;;21.93;15.07;;;;;;;6.61;100.00;102512.03;5116135;28;20273;-34
2021/10/23 02:37:34;;;;;;;26.10;16.98;;;;;;;6.65;100.00;102508.03;5116841;28;20399;-34
2021/10/23 02:40:00;;;;;;;21.48;15.32;;;;;;;6.65;100.00;102499.97;5116717;28;20050;-35
2021/10/23 02:42:26;;;;;;;21.40;16.92;;;;;;;6.56;100.00;102506.31;5116407;28;20024;-35
2021/10/23 02:44:51;;;;;;;19.20;15.17;;;;;;;6.60;100.00;102507.69;5115967;28;20027;-35
2021/10/23 02:47:17;;;;;;;23.75;15.25;;;;;;;6.58;100.00;102505.13;5116009;28;20024;-35
2021/10/23 02:49:42;;;;;;;27.57;16.93;;;;;;;6.53;100.00;102506.63;5115891;28;20026;-34
2021/10/23 02:52:08;;;;;;;20.97;16.87;;;;;;;6.47;100.00;102501.94;5115914;28;20015;-35
2021/10/23 02:54:33;;;;;;;23.20;15.73;;;;;;;6.51;100.00;102524.78;5115744;28;20067;-35
2021/10/23 02:56:58;;;;;;;20.70;15.40;;;;;;;6.36;100.00;102527.25;5115740;28;20073;-35
2021/10/23 02:59:24;;;;;;;19.20;15.27;;;;;;;6.46;100.00;102511.84;5115962;28;20076;-34
2021/10/23 03:01:49;;;;;;;25.57;16.67;;;;;;;6.45;100.00;102504.78;5116259;28;20020;-34
2021/10/23 03:04:15;;;;;;;22.23;17.00;;;;;;;6.42;100.00;102500.56;5115547;28;20015;-35
2021/10/23 03:06:44;;;;;;;31.40;19.40;;;;;;;6.43;100.00;102512.16;5115831;28;20050;-35
2021/10/23 03:09:14;;;;;;;23.27;16.58;;;;;;;6.45;100.00;102504.78;5115351;28;20027;-34
2021/10/23 03:11:39;;;;;;;23.38;16.15;;;;;;;6.30;100.00;102520.69;5115851;28;20015;-35
2021/10/23 03:14:05;;;;;;;25.23;16.83;;;;;;;6.26;100.00;102505.88;5115828;28;20432;-35
2021/10/23 03:16:31;;;;;;;22.80;16.95;;;;;;;6.32;100.00;102526.72;5096986;28;20375;-35
2021/10/23 03:18:56;;;;;;;20.45;16.58;;;;;;;6.17;100.00;102522.97;5114805;28;20165;-34
2021/10/23 03:21:22;;;;;;;18.40;14.97;;;;;;;6.17;100.00;102518.44;5097139;28;20050;-35
2021/10/23 03:23:47;;;;;;;18.03;14.77;;;;;;;5.98;100.00;102513.31;5116040;28;20015;-35
2021/10/23 03:26:13;;;;;;;23.60;15.38;;;;;;;6.07;100.00;102528.47;5115631;28;20051;-34
2021/10/23 03:28:38;;;;;;;22.23;15.37;;;;;;;6.04;100.00;102536.00;5114687;28;20023;-35
2021/10/23 03:31:03;;;;;;;20.57;15.10;;;;;;;5.96;100.00;102538.66;5115558;28;20028;-35
2021/10/23 03:33:29;;;;;;;28.63;18.03;;;;;;;5.96;100.00;102542.19;5113988;28;20145;-35
2021/10/23 03:35:54;;;;;;;22.30;16.13;;;;;;;5.96;100.00;102526.06;5114899;28;20487;-34
2021/10/23 03:38:19;;;;;;;20.00;16.40;;;;;;;5.99;100.00;102547.22;5114619;28;20066;-34
2021/10/23 03:40:46;;;;;;;22.73;15.68;;;;;;;5.96;100.00;102546.72;5115116;28;20058;-34
2021/10/23 03:43:12;;;;;;;18.77;15.18;;;;;;;5.74;100.00;102540.81;5115182;28;20386;-35
2021/10/23 03:45:37;;;;;;;19.43;15.13;;;;;;;5.84;100.00;102536.19;5114399;28;20075;-35
2021/10/23 03:48:03;;;;;;;19.03;13.87;;;;;;;5.89;100.00;102547.28;5115192;28;20109;-34
2021/10/23 03:50:28;;;;;;;18.15;14.48;;;;;;;5.84;100.00;102556.81;5114627;28;20073;-34
2021/10/23 03:52:55;;;;;;;19.73;16.57;;;;;;;5.83;100.00;102561.34;5115135;28;20055;-34
2021/10/23 03:55:20;;;;;;;16.92;13.45;;;;;;;5.70;100.00;102563.59;5115497;28;20023;-35
2021/10/23 03:57:45;;;;;;;19.80;15.53;;;;;;;5.65;100.00;102557.88;5115146;28;20049;-35
2021/10/23 04:00:11;;;;;;;20.33;16.60;;;;;;;5.66;100.00;102567.59;5114336;28;20042;-35
2021/10/23 04:02:36;;;;;;;22.35;16.88;;;;;;;5.59;100.00;102542.41;5114641;28;20046;-34
2021/10/23 04:05:02;;;;;;;15.57;13.53;;;;;;;5.68;100.00;102557.56;5114332;28;20023;-35
2021/10/23 04:07:28;;;;;;;19.98;14.20;;;;;;;5.59;100.00;102567.38;5114070;28;20027;-34
2021/10/23 04:09:53;;;;;;;18.10;14.77;;;;;;;5.60;100.00;102570.91;5114546;28;20055;-34
2021/10/23 04:12:19;;;;;;;15.83;13.37;;;;;;;5.59;100.00;102563.88;5114360;28;20057;-35
2021/10/23 04:14:44;;;;;;;18.07;14.73;;;;;;;5.60;100.00;102555.66;5114357;28;20055;-34
2021/10/23 04:17:09;;;;;;;20.90;15.20;;;;;;;5.67;100.00;102561.25;5114481;28;20474;-34
2021/10/23 04:19:34;;;;;;;18.73;14.73;;;;;;;5.63;100.00;102570.63;5114166;28;20114;-35
2021/10/23 04:22:00;;;;;;;18.20;14.33;;;;;;;5.43;100.00;102543.13;5114136;28;20020;-35
2021/10/23 04:24:26;;;;;;;16.83;13.60;;;;;;;5.49;100.00;102565.81;5114814;28;20020;-34
2021/10/23 04:26:52;;;;;;;17.80;14.65;;;;;;;5.51;100.00;102563.78;5114555;28;20020;-34
2021/10/23 04:29:19;;;;;;;;;;;;;;;5.55;100.00;102566.00;5114397;28;20031;-34
2021/10/23 04:31:44;;;;;;;18.37;13.33;;;;;;;5.25;100.00;102543.13;5114036;28;19910;-34
2021/10/23 04:34:09;;;;;;;20.93;15.10;;;;;;;5.41;100.00;102567.41;5114192;28;20019;-35
2021/10/23 04:36:35;;;;;;;20.93;15.23;;;;;;;5.41;100.00;102569.25;5113729;28;20456;-35
2021/10/23 04:39:00;;;;;;;20.00;14.20;;;;;;;5.45;100.00;102565.25;5096337;28;20035;-35
2021/10/23 04:41:25;;;;;;;24.30;15.80;;;;;;;5.39;100.00;102566.72;5114150;28;20278;-35
2021/10/23 04:43:51;;;;;;;19.60;15.40;;;;;;;5.38;100.00;102565.06;5113940;28;20012;-34
2021/10/23 04:46:16;;;;;;;19.03;14.37;;;;;;;5.43;100.00;102565.44;5114389;28;20026;-34
2021/10/23 04:48:42;;;;;;;20.47;16.30;;;;;;;5.36;100.00;102556.28;5114013;28;20084;-34
2021/10/23 04:51:07;;;;;;;18.52;14.75;;;;;;;5.14;100.00;102540.69;5113764;28;20027;-35
2021/10/23 04:53:33;;;;;;;16.63;13.47;;;;;;;5.28;100.00;102564.28;5113851;28;20024;-35
2021/10/23 04:55:58;;;;;;;18.53;13.60;;;;;;;5.13;100.00;102555.09;5113736;28;20028;-34
2021/10/23 04:58:23;;;;;;;20.83;15.20;;;;;;;5.02;100.00;102541.91;5113971;28;20015;-34
2021/10/23 05:00:49;;;;;;;21.13;15.50;;;;;;;5.18;100.00;102566.22;5095529;28;20184;-34
2021/10/23 05:03:14;;;;;;;20.03;14.27;;;;;;;5.02;100.00;102540.06;5114231;28;20024;-34
2021/10/23 05:05:39;;;;;;;15.30;13.53;;;;;;;5.02;100.00;102568.72;5113620;28;20078;-34
2021/10/23 05:08:05;;;;;;;20.93;15.00;;;;;;;5.01;100.00;102569.72;5113950;28;20023;-35
2021/10/23 05:10:30;;;;;;;20.53;15.43;;;;;;;5.05;100.00;102581.84;5113591;28;20466;-34
2021/10/23 05:12:55;;;;;;;18.77;14.47;;;;;;;4.80;100.00;102557.44;5113884;28;20020;-34
2021/10/23 05:15:21;;;;;;;20.90;15.67;;;;;;;4.95;100.00;102578.38;5113478;28;20741;-34
2021/10/23 05:17:46;;;;;;;19.07;14.23;;;;;;;4.93;100.00;102569.63;5113502;28;20345;-34
2021/10/23 05:20:12;;;;;;;17.40;14.53;;;;;;;5.02;100.00;102577.59;5113852;28;20067;-34
2021/10/23 05:22:38;;;;;;;17.90;14.63;;;;;;;4.98;100.00;102578.06;5113771;28;20331;-34
2021/10/23 05:25:04;;;;;;;19.50;15.98;;;;;;;4.91;100.00;102584.03;5113394;28;20019;-34
2021/10/23 05:27:30;;;;;;;17.90;14.85;;;;;;;4.91;100.00;102589.41;5113903;28;20110;-34
2021/10/23 05:29:56;;;;;;;;;;;;;;;5.01;100.00;102583.13;5114175;28;20043;-34
2021/10/23 05:32:21;;;;;;;15.85;13.70;;;;;;;4.89;100.00;102580.69;5114025;28;19958;-34
2021/10/23 05:34:46;;;;;;;16.57;14.30;;;;;;;4.91;100.00;102583.19;5113749;28;20043;-35
2021/10/23 05:37:12;;;;;;;22.27;15.67;;;;;;;4.82;100.00;102584.09;5113907;28;20023;-34
2021/10/23 05:39:37;;;;;;;18.97;14.07;;;;;;;4.78;100.00;102586.25;5113290;28;20034;-35
2021/10/23 05:42:02;;;;;;;18.23;13.23;;;;;;;4.78;100.00;102582.69;5113204;28;20055;-34
2021/10/23 05:44:28;;;;;;;23.08;15.35;;;;;;;4.71;100.00;102589.66;5113555;28;20019;-34
2021/10/23 05:46:53;;;;;;;18.42;15.02;;;;;;;4.74;100.00;102598.25;5113557;28;20519;-34
2021/10/23 05:49:19;;;;;;;23.73;16.27;;;;;;;4.65;100.00;102601.84;5113522;28;20419;-34
2021/10/23 05:51:44;;;;;;;18.87;15.27;;;;;;;4.64;100.00;102606.34;5113096;28;20451;-34
2021/10/23 05:54:09;;;;;;;19.93;14.83;;;;;;;4.55;100.00;102607.25;5113244;28;20028;-34
2021/10/23 05:56:35;;;;;;;18.10;14.27;;;;;;;4.53;100.00;102608.38;5114719;28;20047;-34
2021/10/23 05:59:10;;;;;;;21.47;16.40;;;;;;;4.48;100.00;102602.63;5116939;28;20019;-35
2021/10/23 06:01:37;;;;;;;20.95;15.48;;;;;;;4.50;100.00;102622.09;5117778;28;20116;-34
2021/10/23 06:04:03;;;;;;;17.58;14.63;;;;;;;4.50;100.00;102622.09;5116784;28;20023;-34
2021/10/23 06:06:28;;;;;;;18.08;13.45;;;;;;;4.57;100.00;102623.16;5116608;28;20418;-34
2021/10/23 06:08:54;;;;;;;19.37;14.67;;;;;;;4.40;100.00;102619.44;5116864;28;20020;-34
2021/10/23 06:11:20;;;;;;;20.73;16.23;;;;;;;4.54;100.00;102628.81;5117290;28;20265;-34
2021/10/23 06:13:45;;;;;;;19.57;14.90;;;;;;;4.55;100.00;102638.56;5116722;28;20062;-34
2021/10/23 06:16:10;;;;;;;20.10;14.90;;;;;;;4.45;100.00;102649.31;5117112;28;20360;-34
2021/10/23 06:18:36;;;;;;;28.40;16.90;;;;;;;4.46;100.00;102644.78;5116353;28;20024;-35
2021/10/23 06:21:01;;;;;;;22.37;16.70;;;;;;;4.41;100.00;102644.38;5116488;28;20016;-34
2021/10/23 06:23:32;;;;;;;;;;;;;;;4.52;100.00;102657.59;5117309;28;20540;-35
2021/10/23 06:25:58;;;;;;;21.30;13.90;;;;;;;4.48;100.00;102657.03;5116393;28;19943;-34
2021/10/23 06:28:23;;;;;;;21.48;12.95;;;;;;;4.47;100.00;102639.28;5116425;28;20372;-34
2021/10/23 06:30:49;;;;;;;33.60;17.90;;;;;;;4.47;100.00;102643.78;5116506;28;20023;-34
2021/10/23 06:33:14;;;;;;;31.67;17.20;;;;;;;4.57;100.00;102661.50;5116786;28;20367;-34
2021/10/23 06:35:39;;;;;;;62.40;17.27;;;;;;;4.56;100.00;102661.66;5116035;28;20383;-34
2021/10/23 06:38:05;;;;;;;48.63;18.83;;;;;;;4.54;100.00;102655.59;5116485;28;20030;-34
2021/10/23 06:40:30;;;;;;;70.23;18.63;;;;;;;4.46;100.00;102647.47;5116740;28;20053;-34
2021/10/23 06:42:55;;;;;;;57.73;18.20;;;;;;;4.59;100.00;102666.75;5116317;28;20390;-34
2021/10/23 06:45:21;;;;;;;53.30;18.70;;;;;;;4.52;100.00;102662.94;5116814;28;20114;-35
2021/10/23 06:47:46;;;;;;;33.97;15.90;;;;;;;4.52;100.00;102662.94;5116574;28;20016;-34
2021/10/23 06:50:13;;;;;;;39.30;18.47;;;;;;;4.58;100.00;102673.06;5116462;28;20494;-35
2021/10/23 06:52:39;;;;;;;69.50;16.98;;;;;;;4.70;100.00;102677.28;5115637;28;20028;-34
2021/10/23 06:55:05;;;;;;;75.40;21.40;;;;;;;4.81;100.00;102674.38;5115549;28;20034;-34
2021/10/23 06:57:31;;;;;;;;;;;;;;;4.92;100.00;102676.03;5116070;28;20383;-34
2021/10/23 06:59:56;;;;;;;54.63;18.05;;;;;;;4.97;100.00;102681.78;5115366;28;19904;-34
2021/10/23 07:02:22;;;;;;;37.67;17.40;;;;;;;4.94;100.00;102675.91;5116388;28;20063;-34
2021/10/23 07:04:47;;;;;;;78.53;19.77;;;;;;;4.96;100.00;102695.34;5115341;28;20031;-34
2021/10/23 07:07:12;;;;;;;83.93;20.93;;;;;;;5.07;100.00;102701.34;5115010;28;20030;-34
2021/10/23 07:09:37;;;;;;;49.70;18.70;;;;;;;4.96;100.00;102693.50;5114780;28;20023;-34
2021/10/23 07:12:03;;;;;;;25.53;15.03;;;;;;;4.89;100.00;102704.00;5115590;28;20344;-34
2021/10/23 07:14:28;;;;;;;23.70;15.43;;;;;;;5.01;100.00;102711.81;5115373;28;20024;-34
2021/10/23 07:16:54;;;;;;;22.03;16.00;;;;;;;4.98;100.00;102702.25;5115488;28;20027;-34
2021/10/23 07:19:19;;;;;;;40.53;17.60;;;;;;;5.23;100.00;102714.13;5115745;28;20100;-34
2021/10/23 07:21:44;;;;;;;87.17;21.87;;;;;;;5.34;100.00;102713.91;5115877;28;20035;-34
2021/10/23 07:24:10;;;;;;;35.33;19.20;;;;;;;5.50;100.00;102710.53;5115194;28;20028;-34
2021/10/23 07:26:35;;;;;;;96.77;23.27;;;;;;;5.55;100.00;102708.25;5115706;28;20023;-34
2021/10/23 07:29:05;;;;;;;41.90;19.33;;;;;;;5.53;100.00;102715.63;5115394;28;20098;-34
2021/10/23 07:31:31;;;;;;;87.80;23.48;;;;;;;5.77;100.00;102715.00;5114916;28;20077;-34
2021/10/23 07:33:56;;;;;;;57.92;22.00;;;;;;;5.90;100.00;102714.59;5115147;28;20039;-34
2021/10/23 07:36:22;;;;;;;132.65;27.33;;;;;;;5.96;100.00;102724.78;5115679;28;20023;-34
2021/10/23 07:38:48;;;;;;;55.00;24.70;;;;;;;5.98;100.00;102716.56;5114997;28;20436;-34
2021/10/23 07:41:14;;;;;;;135.70;28.40;;;;;;;6.11;100.00;102733.13;5115500;28;20019;-34
2021/10/23 07:43:39;;;;;;;67.68;24.85;;;;;;;6.12;100.00;102727.59;5114832;28;20026;-34
2021/10/23 07:46:04;;;;;;;64.50;25.75;;;;;;;6.22;100.00;102738.25;5115165;28;20015;-34
2021/10/23 07:48:32;;;;;;;101.40;27.80;;;;;;;6.30;100.00;102757.13;5115608;28;20073;-34
2021/10/23 07:50:57;;;;;;;89.70;28.73;;;;;;;6.26;100.00;102747.69;5115001;28;20062;-34
2021/10/23 07:53:22;;;;;;;53.60;26.90;;;;;;;6.44;100.00;102761.94;5114839;28;20472;-34
2021/10/23 07:55:48;;;;;;;101.70;30.00;;;;;;;6.48;100.00;102770.50;5114992;28;20051;-34
2021/10/23 07:58:13;;;;;;;43.67;25.70;;;;;;;6.47;100.00;102741.94;5114728;28;20015;-35
2021/10/23 08:00:39;;;;;;;45.20;27.40;;;;;;;6.55;100.00;102747.41;5114670;28;20169;-34
2021/10/23 08:03:05;;;;;;;53.65;28.67;;;;;;;6.70;100.00;102771.84;5114210;28;20030;-34
2021/10/23 08:05:33;;;;;;;51.30;28.63;;;;;;;6.76;100.00;102760.44;5114969;28;20019;-34
2021/10/23 08:07:59;;;;;;;53.95;30.45;;;;;;;6.83;100.00;102774.09;5115253;28;20393;-34
2021/10/23 08:10:26;;;;;;;54.17;30.75;;;;;;;6.91;100.00;102775.00;5114443;28;20024;-34
2021/10/23 08:12:54;;;;;;;49.22;29.38;;;;;;;6.98;100.00;102783.28;5114595;28;20345;-34
2021/10/23 08:15:20;;;;;;;52.22;30.25;;;;;;;7.02;100.00;102781.09;5114246;28;20051;-34
2021/10/23 08:17:46;;;;;;;51.55;29.38;;;;;;;7.09;100.00;102783.00;5114365;28;20058;-34
2021/10/23 08:20:12;;;;;;;47.42;27.65;;;;;;;7.09;100.00;102768.72;5114477;28;20083;-34
2021/10/23 08:22:38;;;;;;;;;;;;;;;7.23;100.00;102784.25;5114724;28;20050;-34
2021/10/23 08:25:06;;;;;;;51.33;30.85;;;;;;;7.22;100.00;102782.53;5114172;28;19907;-34
2021/10/23 08:27:33;;;;;;;54.47;31.98;;;;;;;7.23;100.00;102766.25;5114501;28;20031;-34
2021/10/23 08:30:02;;;;;;;42.03;26.80;;;;;;;7.28;100.00;102773.84;5113867;28;20412;-34
2021/10/23 08:32:27;;;;;;;46.78;29.63;;;;;;;7.37;100.00;102780.94;5114146;28;20027;-34
2021/10/23 08:34:55;;;;;;;53.93;31.30;;;;;;;7.40;100.00;102788.66;5114149;28;20023;-34
2021/10/23 08:37:21;;;;;;;51.20;29.60;;;;;;;7.48;100.00;102788.72;5114350;28;20076;-34
2021/10/23 08:39:46;;;;;;;53.50;33.33;;;;;;;7.54;100.00;102794.44;5114048;28;20114;-34
2021/10/23 08:42:12;;;;;;;56.90;31.40;;;;;;;7.59;100.00;102800.19;5114323;28;20031;-34
2021/10/23 08:44:40;;;;;;;50.88;31.55;;;;;;;7.63;100.00;102793.47;5113952;28;20042;-34
2021/10/23 08:47:06;;;;;;;53.60;32.30;;;;;;;7.70;100.00;102798.00;5114148;28;20157;-34
2021/10/23 08:49:32;;;;;;;55.55;33.55;;;;;;;7.77;100.00;102808.16;5114159;28;20030;-34
2021/10/23 08:51:58;;;;;;;54.60;32.47;;;;;;;7.81;100.00;102796.00;5113909;28;20111;-34
2021/10/23 08:54:25;;;;;;;61.40;33.60;;;;;;;7.90;100.00;102800.41;5113693;28;20024;-34
2021/10/23 08:56:50;;;;;;;;;;;;;;;7.99;100.00;102797.56;5113897;28;20019;-34
2021/10/23 08:59:15;;;;;;;53.20;31.50;;;;;;;8.06;100.00;102794.22;5113809;28;19957;-34
2021/10/23 09:01:41;;;;;;;50.63;31.50;;;;;;;8.13;100.00;102797.94;5114401;28;20034;-34
2021/10/23 09:04:06;;;;;;;55.55;34.75;;;;;;;8.22;100.00;102802.31;5113604;28;20015;-34
2021/10/23 09:06:38;;;;;;;53.87;31.47;;;;;;;8.26;100.00;102799.13;5114280;28;20023;-34
2021/10/23 09:09:12;;;;;;;54.40;33.55;;;;;;;8.34;100.00;102802.81;5114181;28;20039;-34
2021/10/23 09:11:42;;;;;;;49.88;32.53;;;;;;;8.38;100.00;102801.50;5114447;28;20032;-34
2021/10/23 09:14:38;;;;;;;42.53;28.70;;;;;;;8.47;100.00;102795.09;5113554;28;20035;-34
2021/10/23 09:17:06;;;;;;;48.97;31.27;;;;;;;8.47;100.00;102795.94;5114174;28;20012;-34
2021/10/23 09:19:33;;;;;;;46.13;30.02;;;;;;;8.54;100.00;102801.53;5113679;28;20062;-34
2021/10/23 09:21:59;;;;;;;49.42;31.20;;;;;;;8.58;100.00;102812.78;5113617;28;20340;-34
2021/10/23 09:24:25;;;;;;;46.67;29.60;;;;;;;8.61;100.00;102816.00;5113463;28;20035;-34
2021/10/23 09:26:50;;;;;;;40.67;27.23;;;;;;;8.64;100.00;102812.13;5113568;28;20358;-34
2021/10/23 09:29:19;;;;;;;39.75;27.40;;;;;;;8.55;100.00;102784.31;5113226;28;20028;-34
2021/10/23 09:31:46;;;;;;;45.03;30.50;;;;;;;8.78;100.00;102811.41;5097264;28;20019;-34
2021/10/23 09:34:15;;;;;;;47.95;30.33;;;;;;;8.82;100.00;102811.91;5117424;28;20038;-35
2021/10/23 09:37:02;;;;;;;48.10;30.08;;;;;;;8.88;100.00;102813.91;5118251;28;20061;-35
2021/10/23 09:39:28;;;;;;;51.47;31.20;;;;;;;8.95;100.00;102812.22;5117569;28;20069;-35
2021/10/23 09:42:18;;;;;;;44.22;28.85;;;;;;;8.90;100.00;102803.81;5117604;28;20412;-35
2021/10/23 09:44:54;;;;;;;40.22;27.20;;;;;;;8.96;100.00;102822.84;5117610;28;20027;-35
2021/10/23 09:47:19;;;;;;;36.75;26.00;;;;;;;9.00;100.00;102815.25;5117729;28;20027;-35
2021/10/23 09:50:09;;;;;;;42.33;27.57;;;;;;;8.97;100.00;102797.53;5117244;28;20016;-35
2021/10/23 09:52:51;;;;;;;40.20;27.48;;;;;;;9.09;100.00;102810.69;5117071;28;20116;-35
2021/10/23 09:55:17;;;;;;;41.42;29.33;;;;;;;9.10;100.00;102818.59;5117101;28;20504;-35
2021/10/23 09:57:42;;;;;;;35.13;25.47;;;;;;;9.15;100.00;102810.81;5117325;28;20024;-35
2021/10/23 10:00:09;;;;;;;42.40;27.33;;;;;;;9.19;100.00;102811.31;5117498;28;20432;-35
2021/10/23 10:02:42;;;;;;;48.47;30.25;;;;;;;9.25;100.00;102821.41;5116829;28;20409;-35
2021/10/23 10:05:09;;;;;;;45.47;30.27;;;;;;;9.29;100.00;102811.97;5116741;28;20100;-35
2021/10/23 10:07:34;;;;;;;43.65;30.40;;;;;;;9.33;100.00;102813.28;5116620;28;20020;-35
2021/10/23 10:10:01;;;;;;;40.67;30.33;;;;;;;9.39;100.00;102811.75;5116856;28;20110;-35
2021/10/23 10:12:29;;;;;;;43.15;31.25;;;;;;;9.44;100.00;102825.56;5116505;28;20494;-35
2021/10/23 10:14:54;;;;;;;41.63;30.27;;;;;;;9.47;100.00;102826.06;5116248;28;20065;-35
2021/10/23 10:17:21;;;;;;;40.88;29.33;;;;;;;9.47;100.00;102815.25;5117097;28;20027;-35
2021/10/23 10:19:47;;;;;;;39.13;28.40;;;;;;;9.47;100.00;102825.22;5116411;28;20044;-35
2021/10/23 10:22:13;;;;;;;36.38;26.25;;;;;;;9.53;100.00;102821.81;5116718;28;20027;-35
2021/10/23 10:24:39;;;;;;;38.03;26.97;;;;;;;9.57;100.00;102827.72;5116236;28;20027;-35
2021/10/23 10:27:13;;;;;;;38.85;27.77;;;;;;;9.58;100.00;102827.53;5116455;28;20038;-35
2021/10/23 10:29:55;;;;;;;37.63;27.58;;;;;;;9.64;100.00;102831.38;5116363;28;20024;-35
2021/10/23 10:42:51;;;;;;;33.03;25.02;;;;;;;9.85;100.00;102822.66;5116228;28;20451;-35
2021/10/23 10:45:24;;;;;;;40.10;27.30;;;;;;;9.94;100.00;102825.13;5116312;28;20320;-35
2021/10/23 10:48:07;;;;;;;40.00;27.25;;;;;;;9.99;100.00;102822.72;5116214;28;20024;-35
2021/10/23 10:50:52;;;;;;;36.63;25.35;;;;;;;10.04;100.00;102812.22;5115576;28;20033;-35
2021/10/23 10:53:26;;;;;;;29.15;20.23;;;;;;;9.94;100.00;102798.09;5115586;28;20448;-35
2021/10/23 10:56:06;;;;;;;31.00;20.30;;;;;;;10.01;100.00;102800.94;5097536;28;20019;-35
2021/10/23 10:58:55;;;;;;;28.27;18.42;;;;;;;10.12;100.00;102813.19;5116560;28;20022;-35
2021/10/23 11:01:25;;;;;;;27.90;18.48;;;;;;;10.02;100.00;102798.06;5115998;28;20341;-35
2021/10/23 11:04:03;;;;;;;21.35;16.50;;;;;;;10.13;100.00;102806.75;5115588;28;20023;-36
2021/10/23 11:09:11;;;;;;;23.13;15.73;;;;;;;10.12;98.70;102805.94;5115928;28;20051;-35
2021/10/23 11:11:42;;;;;;;22.98;15.65;;;;;;;10.20;98.11;102827.50;5115454;28;20028;-35
2021/10/23 11:14:08;;;;;;;20.10;14.88;;;;;;;10.15;97.93;102810.13;5115769;28;20072;-35
2021/10/23 11:16:35;;;;;;;21.27;15.70;;;;;;;10.25;98.48;102824.28;5115119;28;20469;-35
2021/10/23 11:19:02;;;;;;;20.52;15.23;;;;;;;10.26;98.30;102823.28;5115649;28;20043;-35
2021/10/23 11:21:28;;;;;;;25.52;17.73;;;;;;;10.30;99.10;102817.31;5115586;28;20024;-35
2021/10/23 11:23:54;;;;;;;25.17;15.18;;;;;;;10.32;98.52;102803.59;5115130;28;20020;-35